createdAt,value
2018-04-22T00:01:13.390Z,101305.10
2018-04-22T00:03:39.170Z,101299.75
2018-04-22T00:06:04.952Z,101298.10
2018-04-22T00:08:30.732Z,101298.97
2018-04-22T00:10:56.502Z,101291.53
2018-04-22T00:13:22.303Z,101295.42
2018-04-22T00:15:48.092Z,101289.64
2018-04-22T00:18:13.870Z,101290.80
2018-04-22T00:20:39.666Z,101280.98
2018-04-22T00:23:05.454Z,101280.38
2018-04-22T00:25:31.224Z,101280.67
2018-04-22T00:27:57.016Z,101277.98
2018-04-22T00:30:22.803Z,101270.58
2018-04-22T00:32:48.577Z,101262.91
2018-04-22T00:35:14.369Z,101270.03
2018-04-22T00:37:40.141Z,101268.61
2018-04-22T00:40:05.923Z,101267.92
2018-04-22T00:42:31.706Z,101265.72
2018-04-22T00:44:57.497Z,101261.45
2018-04-22T00:47:23.278Z,101252.17
2018-04-22T00:49:49.050Z,101251.63
2018-04-22T00:52:14.847Z,101252.67
2018-04-22T00:54:40.632Z,101245.97
2018-04-22T00:57:06.429Z,101243.89
2018-04-22T00:59:32.223Z,101242.68
2018-04-22T01:01:58.050Z,101245.95
2018-04-22T01:04:23.845Z,101244.77
2018-04-22T01:06:49.646Z,101246.04
2018-04-22T01:09:15.437Z,101246.21
2018-04-22T01:11:41.217Z,101246.91
2018-04-22T01:14:07.006Z,101245.58
2018-04-22T01:16:32.778Z,101247.58
2018-04-22T01:18:58.647Z,101239.20
2018-04-22T01:21:24.441Z,101245.83
2018-04-22T01:23:50.229Z,101237.86
2018-04-22T01:26:16.030Z,101238.08
2018-04-22T01:28:41.816Z,101240.03
2018-04-22T01:31:07.586Z,101239.72
2018-04-22T01:33:33.385Z,101237.14
2018-04-22T01:35:59.171Z,101235.42
2018-04-22T01:38:24.942Z,101234.22
2018-04-22T01:40:50.734Z,101236.08
2018-04-22T01:43:16.538Z,101234.20
2018-04-22T01:45:42.334Z,101233.25
2018-04-22T01:48:08.114Z,101234.59
2018-04-22T01:50:33.892Z,101226.00
2018-04-22T01:52:59.694Z,101224.58
2018-04-22T01:55:25.473Z,101222.70
2018-04-22T01:57:51.326Z,101224.28
2018-04-22T02:00:17.149Z,101223.45
2018-04-22T02:02:42.956Z,101220.08
2018-04-22T02:05:08.739Z,101216.30
2018-04-22T02:07:34.525Z,101218.61
2018-04-22T02:10:00.305Z,101214.84
2018-04-22T02:12:26.085Z,101209.80
2018-04-22T02:14:51.849Z,101219.23
2018-04-22T02:17:17.630Z,101208.60
2018-04-22T02:19:43.409Z,101204.12
2018-04-22T02:22:09.207Z,101209.89
2018-04-22T02:24:34.977Z,101207.09
2018-04-22T02:27:00.755Z,101196.44
2018-04-22T02:29:26.556Z,101200.75
2018-04-22T02:31:52.331Z,101199.55
2018-04-22T02:34:18.110Z,101201.80
2018-04-22T02:36:43.916Z,101203.78
2018-04-22T02:39:09.701Z,101197.83
2018-04-22T02:41:35.479Z,101184.89
2018-04-22T02:44:01.288Z,101181.94
2018-04-22T02:46:27.078Z,101178.66
2018-04-22T02:48:52.849Z,101177.59
2018-04-22T02:51:18.654Z,101172.70
2018-04-22T02:53:44.431Z,101172.67
2018-04-22T02:56:10.205Z,101164.41
2018-04-22T02:58:36.011Z,101166.85
2018-04-22T03:01:01.800Z,101160.89
2018-04-22T03:03:27.581Z,101161.49
2018-04-22T03:05:53.377Z,101153.12
2018-04-22T03:08:19.157Z,101151.14
2018-04-22T03:10:44.944Z,101147.48
2018-04-22T03:13:10.717Z,101147.05
2018-04-22T03:15:36.486Z,101149.25
2018-04-22T03:18:02.321Z,101154.84
2018-04-22T03:20:28.120Z,101153.13
2018-04-22T03:22:53.933Z,101153.77
2018-04-22T03:25:19.749Z,101151.70
2018-04-22T03:27:45.553Z,101146.78
2018-04-22T03:30:11.346Z,101147.72
2018-04-22T03:32:37.129Z,101144.49
2018-04-22T03:35:02.916Z,101151.76
2018-04-22T03:37:28.705Z,101153.03
2018-04-22T03:39:54.526Z,101154.53
2018-04-22T03:42:20.328Z,101149.79
2018-04-22T03:44:46.121Z,101143.53
2018-04-22T03:47:11.914Z,101143.59
2018-04-22T03:49:37.709Z,101133.66
2018-04-22T03:52:03.492Z,101136.78
2018-04-22T03:54:29.291Z,101137.80
2018-04-22T03:56:55.394Z,101138.79
2018-04-22T03:59:21.173Z,101140.03
2018-04-22T04:01:47.014Z,101136.72
2018-04-22T04:04:12.802Z,101132.84
2018-04-22T04:06:38.651Z,101132.00
2018-04-22T04:09:04.469Z,101131.54
2018-04-22T04:11:30.262Z,101133.25
2018-04-22T04:13:56.209Z,101134.22
2018-04-22T04:16:21.988Z,101133.05
2018-04-22T04:19:01.136Z,101135.22
2018-04-22T04:21:39.321Z,101128.16
2018-04-22T04:27:24.556Z,101123.87
2018-04-22T04:29:50.345Z,101124.13
2018-04-22T04:32:16.135Z,101122.75
2018-04-22T04:34:41.940Z,101120.61
2018-04-22T04:37:07.743Z,101114.50
2018-04-22T04:39:33.543Z,101106.46
2018-04-22T04:41:59.318Z,101109.31
2018-04-22T04:44:25.109Z,101103.50
2018-04-22T04:46:51.535Z,101099.17
2018-04-22T04:49:17.309Z,101097.32
2018-04-22T04:51:43.077Z,101103.27
2018-04-22T04:54:09.062Z,101100.95
2018-04-22T04:56:34.882Z,101105.63
2018-04-22T04:59:00.671Z,101102.38
2018-04-22T05:01:26.481Z,101110.61
2018-04-22T05:03:52.272Z,101115.66
2018-04-22T05:06:18.066Z,101118.54
2018-04-22T05:08:43.865Z,101113.69
2018-04-22T05:11:16.663Z,101113.98
2018-04-22T05:13:42.437Z,101116.29
2018-04-22T05:16:08.238Z,101111.09
2018-04-22T05:18:34.036Z,101119.91
2018-04-22T05:20:59.841Z,101118.60
2018-04-22T05:23:25.625Z,101111.01
2018-04-22T05:25:51.410Z,101109.98
2018-04-22T05:28:17.199Z,101104.73
2018-04-22T05:30:42.977Z,101093.67
2018-04-22T05:33:08.766Z,101096.32
2018-04-22T05:35:34.586Z,101095.16
2018-04-22T05:38:00.377Z,101099.34
2018-04-22T05:40:26.153Z,101101.45
2018-04-22T05:42:51.959Z,101089.91
2018-04-22T05:45:17.738Z,101094.96
2018-04-22T05:47:43.530Z,101098.09
2018-04-22T05:50:09.314Z,101091.52
2018-04-22T05:52:35.090Z,101095.30
2018-04-22T05:55:00.868Z,101093.36
2018-04-22T05:57:26.906Z,101091.06
2018-04-22T05:59:52.697Z,101084.95
2018-04-22T06:02:18.514Z,101087.41
2018-04-22T06:04:44.278Z,101089.10
2018-04-22T06:07:10.075Z,101091.95
2018-04-22T06:09:35.857Z,101090.45
2018-04-22T06:12:01.649Z,101096.66
2018-04-22T06:14:27.440Z,101094.09
2018-04-22T06:16:53.231Z,101094.07
2018-04-22T06:19:19.010Z,101093.86
2018-04-22T06:21:44.826Z,101088.71
2018-04-22T06:24:10.629Z,101080.58
2018-04-22T06:26:36.414Z,101075.00
2018-04-22T06:29:02.188Z,101075.81
2018-04-22T06:31:28.167Z,101079.06
2018-04-22T06:33:54.002Z,101077.28
2018-04-22T06:36:19.796Z,101078.03
2018-04-22T06:38:45.625Z,101076.42
2018-04-22T06:41:18.527Z,101081.37
2018-04-22T06:43:44.323Z,101077.02
2018-04-22T06:46:10.132Z,101078.18
2018-04-22T06:48:35.910Z,101077.79
2018-04-22T06:51:01.690Z,101081.63
2018-04-22T06:53:27.490Z,101076.30
2018-04-22T06:55:53.277Z,101062.78
2018-04-22T06:58:19.061Z,101066.75
2018-04-22T07:00:44.850Z,101068.59
2018-04-22T07:03:10.617Z,101071.23
2018-04-22T07:05:36.398Z,101068.55
2018-04-22T07:08:02.190Z,101072.13
2018-04-22T07:10:27.977Z,101067.22
2018-04-22T07:12:53.773Z,101056.05
2018-04-22T07:15:19.565Z,101050.77
2018-04-22T07:17:45.343Z,101055.58
2018-04-22T07:20:11.149Z,101061.27
2018-04-22T07:22:37.113Z,101058.11
2018-04-22T07:25:02.924Z,101061.78
2018-04-22T07:27:28.713Z,101057.23
2018-04-22T07:29:54.524Z,101053.50
2018-04-22T07:32:20.318Z,101057.23
2018-04-22T07:34:46.089Z,101054.72
2018-04-22T07:37:11.903Z,101055.19
2018-04-22T07:39:37.674Z,101054.47
2018-04-22T07:42:07.346Z,101057.75
2018-04-22T07:44:33.168Z,101049.97
2018-04-22T07:46:58.945Z,101053.13
2018-04-22T07:49:24.748Z,101046.41
2018-04-22T07:51:50.722Z,101047.77
2018-04-22T07:54:16.546Z,101043.23
2018-04-22T07:56:42.342Z,101041.78
2018-04-22T07:59:08.418Z,101046.63
2018-04-22T08:01:34.266Z,101035.70
2018-04-22T08:04:00.069Z,101040.69
2018-04-22T08:06:26.250Z,101047.76
2018-04-22T08:08:53.083Z,101044.39
2018-04-22T08:11:18.915Z,101046.52
2018-04-22T08:13:44.765Z,101033.24
2018-04-22T08:16:12.832Z,101027.66
2018-04-22T08:18:39.230Z,101019.51
2018-04-22T08:21:05.253Z,101022.28
2018-04-22T08:23:31.070Z,101012.12
2018-04-22T08:25:56.878Z,101009.81
2018-04-22T08:28:22.694Z,101007.35
2018-04-22T08:30:48.496Z,101004.27
2018-04-22T08:33:14.356Z,101012.45
2018-04-22T08:35:40.267Z,101003.53
2018-04-22T08:38:06.111Z,100998.41
2018-04-22T08:40:31.911Z,100996.33
2018-04-22T08:42:57.689Z,100994.73
2018-04-22T08:45:23.530Z,100990.17
2018-04-22T08:47:49.321Z,100990.39
2018-04-22T08:50:15.101Z,100987.39
2018-04-22T08:52:40.898Z,100984.11
2018-04-22T08:55:06.718Z,100983.31
2018-04-22T08:57:32.493Z,100978.59
2018-04-22T08:59:58.323Z,100978.55
2018-04-22T09:02:24.102Z,100982.11
2018-04-22T09:04:49.904Z,100979.22
2018-04-22T09:07:16.000Z,100979.65
2018-04-22T09:09:41.785Z,100980.25
2018-04-22T09:12:07.585Z,100967.06
2018-04-22T09:14:33.394Z,100962.83
2018-04-22T09:16:59.177Z,100966.56
2018-04-22T09:19:25.249Z,100961.97
2018-04-22T09:21:51.025Z,100962.81
2018-04-22T09:24:16.794Z,100964.61
2018-04-22T09:26:42.576Z,100962.80
2018-04-22T09:29:08.378Z,100961.38
2018-04-22T09:31:34.173Z,100959.20
2018-04-22T09:33:59.970Z,100964.17
2018-04-22T09:36:25.767Z,100955.54
2018-04-22T09:38:51.737Z,100944.92
2018-04-22T09:41:17.541Z,100943.68
2018-04-22T09:43:43.317Z,100939.75
2018-04-22T09:46:09.141Z,100933.75
2018-04-22T09:48:34.954Z,100923.12
2018-04-22T09:51:00.744Z,100928.78
2018-04-22T09:53:26.810Z,100924.80
2018-04-22T09:55:52.590Z,100924.00
2018-04-22T09:58:18.394Z,100918.48
2018-04-22T10:00:46.113Z,100918.68
2018-04-22T10:03:11.936Z,100920.86
2018-04-22T10:05:43.940Z,100925.67
2018-04-22T10:08:09.742Z,100919.49
2018-04-22T10:10:35.525Z,100912.30
2018-04-22T10:13:01.318Z,100910.97
2018-04-22T10:15:27.126Z,100905.97
2018-04-22T10:17:52.927Z,100904.87
2018-04-22T10:20:18.722Z,100911.99
2018-04-22T10:22:44.522Z,100901.45
2018-04-22T10:25:10.304Z,100905.69
2018-04-22T10:27:36.081Z,100897.20
2018-04-22T10:30:01.881Z,100891.30
2018-04-22T10:32:27.665Z,100880.04
2018-04-22T10:34:53.471Z,100874.42
2018-04-22T10:37:19.283Z,100867.48
2018-04-22T10:39:45.318Z,100864.38
2018-04-22T10:42:11.167Z,100854.43
2018-04-22T10:44:37.369Z,100850.28
2018-04-22T10:47:03.169Z,100849.59
2018-04-22T10:49:28.983Z,100849.52
2018-04-22T10:51:54.756Z,100838.38
2018-04-22T10:54:20.537Z,100834.43
2018-04-22T10:56:46.366Z,100834.24
2018-04-22T10:59:12.147Z,100837.27
2018-04-22T11:01:37.922Z,100827.59
2018-04-22T11:04:03.731Z,100825.09
2018-04-22T11:06:29.519Z,100819.36
2018-04-22T11:08:55.320Z,100818.61
2018-04-22T11:11:21.205Z,100817.39
2018-04-22T11:13:46.988Z,100826.02
2018-04-22T11:16:12.763Z,100826.97
2018-04-22T11:18:38.550Z,100821.94
2018-04-22T11:21:04.374Z,100817.06
2018-04-22T11:23:30.177Z,100815.17
2018-04-22T11:25:55.989Z,100817.02
2018-04-22T11:28:21.771Z,100816.15
2018-04-22T11:30:47.565Z,100814.80
2018-04-22T11:33:13.370Z,100804.69
2018-04-22T11:35:39.153Z,100806.95
2018-04-22T11:38:04.946Z,100799.46
2018-04-22T11:40:30.760Z,100798.59
2018-04-22T11:42:56.545Z,100787.16
2018-04-22T11:45:22.326Z,100781.36
2018-04-22T11:47:48.221Z,100772.67
2018-04-22T11:50:14.013Z,100770.66
2018-04-22T11:52:39.822Z,100770.30
2018-04-22T11:55:05.628Z,100767.63
2018-04-22T11:57:31.413Z,100769.09
2018-04-22T11:59:57.237Z,100762.47
2018-04-22T12:02:23.036Z,100763.02
2018-04-22T12:04:48.844Z,100760.11
2018-04-22T12:07:14.689Z,100759.25
2018-04-22T12:09:40.477Z,100757.27
2018-04-22T12:12:06.254Z,100744.81
2018-04-22T12:14:32.412Z,100746.45
2018-04-22T12:16:58.218Z,100736.46
2018-04-22T12:19:24.009Z,100728.55
2018-04-22T12:21:49.790Z,100731.61
2018-04-22T12:24:15.585Z,100724.98
2018-04-22T12:26:41.397Z,100727.14
2018-04-22T12:29:07.192Z,100720.51
2018-04-22T12:31:32.990Z,100725.52
2018-04-22T12:33:58.796Z,100713.70
2018-04-22T12:36:24.581Z,100715.70
2018-04-22T12:38:50.361Z,100699.00
2018-04-22T12:41:16.195Z,100697.82
2018-04-22T12:43:42.007Z,100692.94
2018-04-22T12:46:07.785Z,100686.81
2018-04-22T12:48:33.578Z,100685.25
2018-04-22T12:50:59.389Z,100688.48
2018-04-22T12:53:25.187Z,100676.66
2018-04-22T12:55:50.962Z,100679.47
2018-04-22T12:58:16.746Z,100673.47
2018-04-22T13:00:42.553Z,100668.73
2018-04-22T13:03:08.374Z,100665.13
2018-04-22T13:05:34.190Z,100656.89
2018-04-22T13:08:00.111Z,100652.30
2018-04-22T13:10:25.903Z,100658.54
2018-04-22T13:12:51.698Z,100646.05
2018-04-22T13:15:17.495Z,100645.39
2018-04-22T13:17:43.281Z,100639.25
2018-04-22T13:20:09.085Z,100642.80
2018-04-22T13:22:34.899Z,100636.16
2018-04-22T13:25:00.685Z,100634.59
2018-04-22T13:27:26.465Z,100631.66
2018-04-22T13:29:52.286Z,100622.73
2018-04-22T13:32:18.077Z,100623.11
2018-04-22T13:34:43.930Z,100618.94
2018-04-22T13:37:09.799Z,100609.91
2018-04-22T13:39:35.559Z,100609.08
2018-04-22T13:42:01.353Z,100614.25
2018-04-22T13:44:27.377Z,100609.95
2018-04-22T13:46:53.221Z,100600.11
2018-04-22T13:49:19.014Z,100589.41
2018-04-22T13:51:44.823Z,100593.23
2018-04-22T13:54:10.607Z,100587.23
2018-04-22T13:56:36.399Z,100588.97
2018-04-22T13:59:02.230Z,100579.50
2018-04-22T14:01:28.031Z,100585.43
2018-04-22T14:03:53.886Z,100572.26
2018-04-22T14:06:19.690Z,100573.94
2018-04-22T14:08:45.478Z,100569.17
2018-04-22T14:11:11.261Z,100569.27
2018-04-22T14:13:37.058Z,100558.94
2018-04-22T14:16:02.865Z,100547.86
2018-04-22T14:18:29.625Z,100542.30
2018-04-22T14:20:55.512Z,100537.11
2018-04-22T14:23:21.298Z,100534.98
2018-04-22T14:25:47.082Z,100531.09
2018-04-22T14:28:12.890Z,100531.75
2018-04-22T14:30:38.698Z,100528.95
2018-04-22T14:33:04.483Z,100523.81
2018-04-22T14:35:30.274Z,100516.91
2018-04-22T14:37:56.070Z,100514.36
2018-04-22T14:40:21.929Z,100510.47
2018-04-22T14:42:47.714Z,100508.44
2018-04-22T14:45:25.921Z,100498.62
2018-04-22T14:47:51.705Z,100496.02
2018-04-22T14:50:17.774Z,100493.91
2018-04-22T14:52:43.572Z,100492.19
2018-04-22T14:55:09.367Z,100491.77
2018-04-22T14:57:35.154Z,100486.62
2018-04-22T15:00:00.987Z,100487.05
2018-04-22T15:02:26.797Z,100478.05
2018-04-22T15:04:52.585Z,100474.20
2018-04-22T15:07:18.706Z,100471.17
2018-04-22T15:09:44.524Z,100463.93
2018-04-22T15:12:10.335Z,100465.20
2018-04-22T15:14:36.267Z,100460.09
2018-04-22T15:17:02.096Z,100454.08
2018-04-22T15:19:27.918Z,100446.36
2018-04-22T15:21:53.685Z,100449.80
2018-04-22T15:24:19.498Z,100447.23
2018-04-22T15:26:45.286Z,100448.09
2018-04-22T15:29:11.285Z,100447.66
2018-04-22T15:31:37.073Z,100446.81
2018-04-22T15:34:02.853Z,100434.81
2018-04-22T15:36:29.067Z,100439.53
2018-04-22T15:38:54.884Z,100435.26
2018-04-22T15:41:21.589Z,100426.27
2018-04-22T15:43:47.906Z,100426.72
2018-04-22T15:46:13.737Z,100424.55
2018-04-22T15:48:39.729Z,100420.70
2018-04-22T15:51:06.360Z,100401.45
2018-04-22T15:53:33.102Z,100418.95
2018-04-22T15:55:59.574Z,100415.05
2018-04-22T15:58:25.437Z,100414.16
2018-04-22T16:00:51.237Z,100414.99
2018-04-22T16:03:17.062Z,100413.27
2018-04-22T16:05:42.873Z,100413.33
2018-04-22T16:08:08.711Z,100411.15
2018-04-22T16:10:34.508Z,100408.55
2018-04-22T16:13:00.977Z,100414.17
2018-04-22T16:15:26.795Z,100408.09
2018-04-22T16:17:54.953Z,100400.31
2018-04-22T16:20:22.819Z,100400.27
2018-04-22T16:22:49.231Z,100403.24
2018-04-22T16:25:15.021Z,100400.13
2018-04-22T16:27:41.892Z,100412.49
2018-04-22T16:30:07.726Z,100404.72
2018-04-22T16:32:33.583Z,100399.63
2018-04-22T16:34:59.371Z,100392.28
2018-04-22T16:37:25.198Z,100400.09
2018-04-22T16:39:50.977Z,100388.95
2018-04-22T16:42:16.778Z,100392.73
2018-04-22T16:44:42.571Z,100385.86
2018-04-22T16:47:08.373Z,100390.89
2018-04-22T16:49:34.197Z,100379.75
2018-04-22T16:51:59.982Z,100368.64
2018-04-22T16:54:25.812Z,100369.14
2018-04-22T16:56:52.119Z,100359.69
2018-04-22T16:59:18.682Z,100352.78
2018-04-22T17:01:44.536Z,100354.89
2018-04-22T17:04:10.501Z,100352.33
2018-04-22T17:06:36.294Z,100360.03
2018-04-22T17:09:03.919Z,100350.57
2018-04-22T17:11:29.730Z,100351.00
2018-04-22T17:13:55.542Z,100346.20
2018-04-22T17:16:21.388Z,100345.67
2018-04-22T17:18:47.173Z,100346.13
2018-04-22T17:21:12.994Z,100336.30
2018-04-22T17:23:38.890Z,100336.70
2018-04-22T17:26:04.720Z,100329.78
2018-04-22T17:28:37.548Z,100331.49
2018-04-22T17:31:04.375Z,100331.78
2018-04-22T17:33:31.121Z,100329.20
2018-04-22T17:35:56.963Z,100331.30
2018-04-22T17:38:22.769Z,100328.28
2018-04-22T17:40:48.587Z,100332.86
2018-04-22T17:43:14.396Z,100333.28
2018-04-22T17:45:40.233Z,100329.34
2018-04-22T17:48:06.067Z,100329.65
2018-04-22T17:50:31.882Z,100314.67
2018-04-22T17:52:57.967Z,100310.84
2018-04-22T17:55:23.759Z,100312.50
2018-04-22T17:57:49.598Z,100314.16
2018-04-22T18:00:15.425Z,100314.52
2018-04-22T18:02:41.226Z,100307.08
2018-04-22T18:05:07.048Z,100310.47
2018-04-22T18:07:32.859Z,100308.69
2018-04-22T18:09:58.654Z,100309.88
2018-04-22T18:12:24.480Z,100305.10
2018-04-22T18:14:50.301Z,100304.30
2018-04-22T18:17:16.318Z,100313.23
2018-04-22T18:19:42.113Z,100315.28
2018-04-22T18:22:08.023Z,100309.20
2018-04-22T18:24:33.828Z,100311.56
2018-04-22T18:26:59.625Z,100312.91
2018-04-22T18:29:25.443Z,100304.82
2018-04-22T18:31:52.156Z,100303.73
2018-04-22T18:34:18.019Z,100299.95
2018-04-22T18:36:43.841Z,100305.58
2018-04-22T18:39:09.656Z,100307.88
2018-04-22T18:41:35.826Z,100319.02
2018-04-22T18:44:08.603Z,100311.25
2018-04-22T18:46:34.394Z,100311.86
2018-04-22T18:49:00.207Z,100315.41
2018-04-22T18:51:26.016Z,100316.35
2018-04-22T18:53:51.807Z,100305.75
2018-04-22T18:56:17.763Z,100303.48
2018-04-22T18:58:43.591Z,100302.72
2018-04-22T19:01:09.568Z,100299.74
2018-04-22T19:03:35.386Z,100303.14
2018-04-22T19:06:01.625Z,100295.72
2018-04-22T19:08:27.563Z,100294.07
2018-04-22T19:10:53.378Z,100288.49
2018-04-22T19:13:19.213Z,100287.09
2018-04-22T19:15:44.998Z,100289.48
2018-04-22T19:18:11.019Z,100287.09
2018-04-22T19:20:36.863Z,100293.84
2018-04-22T19:23:02.748Z,100295.11
2018-04-22T19:25:28.494Z,100303.51
2018-04-22T19:27:54.287Z,100307.72
2018-04-22T19:30:20.115Z,100301.36
2018-04-22T19:32:46.051Z,100288.92
2018-04-22T19:35:11.844Z,100292.95
2018-04-22T19:37:37.958Z,100291.11
2018-04-22T19:40:03.771Z,100287.63
2018-04-22T19:42:29.685Z,100281.97
2018-04-22T19:44:55.481Z,100281.45
2018-04-22T19:47:21.276Z,100276.73
2018-04-22T19:49:47.551Z,100268.59
2018-04-22T19:52:13.337Z,100273.94
2018-04-22T19:54:39.149Z,100276.66
2018-04-22T19:57:05.062Z,100271.58
2018-04-22T19:59:30.868Z,100261.64
2018-04-22T20:01:56.676Z,100252.34
2018-04-22T20:04:22.576Z,100247.95
2018-04-22T20:06:48.391Z,100252.34
2018-04-22T20:09:14.220Z,100242.16
2018-04-22T20:11:40.002Z,100238.08
2018-04-22T20:14:05.799Z,100234.97
2018-04-22T20:16:31.606Z,100227.95
2018-04-22T20:18:57.415Z,100221.06
2018-04-22T20:21:23.211Z,100226.03
2018-04-22T20:23:49.057Z,100220.11
2018-04-22T20:26:14.900Z,100220.47
2018-04-22T20:28:40.695Z,100212.78
2018-04-22T20:31:06.497Z,100212.59
2018-04-22T20:33:32.293Z,100214.06
2018-04-22T20:35:58.110Z,100207.05
2018-04-22T20:38:24.139Z,100220.83
2018-04-22T20:40:49.993Z,100222.98
2018-04-22T20:43:15.824Z,100222.28
2018-04-22T20:45:41.607Z,100218.22
2018-04-22T20:48:07.502Z,100215.60
2018-04-22T20:50:33.285Z,100210.10
2018-04-22T20:52:59.064Z,100208.42
2018-04-22T20:55:25.121Z,100217.45
2018-04-22T20:57:52.490Z,100221.08
2018-04-22T21:00:18.274Z,100215.55
2018-04-22T21:02:44.248Z,100217.89
2018-04-22T21:05:10.175Z,100220.43
2018-04-22T21:07:36.002Z,100229.28
2018-04-22T21:10:01.816Z,100239.60
2018-04-22T21:12:27.594Z,100246.45
2018-04-22T21:14:53.508Z,100242.97
2018-04-22T21:17:19.325Z,100257.05
2018-04-22T21:19:45.103Z,100259.36
2018-04-22T21:22:10.890Z,100272.86
2018-04-22T21:24:36.693Z,100270.09
2018-04-22T21:27:02.522Z,100266.49
2018-04-22T21:29:28.300Z,100256.67
2018-04-22T21:31:54.110Z,100254.13
2018-04-22T21:34:19.936Z,100250.17
2018-04-22T21:36:45.725Z,100247.50
2018-04-22T21:39:11.550Z,100241.92
2018-04-22T21:41:37.342Z,100238.39
2018-04-22T21:44:03.135Z,100251.16
2018-04-22T21:46:29.271Z,100246.72
2018-04-22T21:48:55.080Z,100239.95
2018-04-22T21:51:21.147Z,100239.65
2018-04-22T21:53:46.947Z,100243.39
2018-04-22T21:56:12.738Z,100232.38
2018-04-22T21:58:38.789Z,100234.56
2018-04-22T22:01:04.619Z,100239.72
2018-04-22T22:03:30.423Z,100266.28
2018-04-22T22:05:56.244Z,100270.70
2018-04-22T22:08:22.026Z,100276.70
2018-04-22T22:10:47.819Z,100292.66
2018-04-22T22:13:13.789Z,100297.08
2018-04-22T22:15:39.585Z,100311.18
2018-04-22T22:18:05.407Z,100315.32
2018-04-22T22:20:31.204Z,100311.45
2018-04-22T22:22:56.996Z,100312.83
2018-04-22T22:25:22.789Z,100325.73
2018-04-22T22:27:48.592Z,100326.91
2018-04-22T22:30:14.374Z,100324.20
2018-04-22T22:32:40.405Z,100328.19
2018-04-22T22:35:06.184Z,100326.44
2018-04-22T22:37:31.990Z,100325.13
2018-04-22T22:39:57.770Z,100314.05
2018-04-22T22:42:23.727Z,100313.89
2018-04-22T22:44:49.725Z,100319.40
2018-04-22T22:47:15.522Z,100304.58
2018-04-22T22:49:41.314Z,100302.66
2018-04-22T22:52:07.114Z,100299.38
2018-04-22T22:54:32.905Z,100303.71
2018-04-22T22:56:58.726Z,100301.25
2018-04-22T22:59:24.521Z,100298.37
2018-04-22T23:01:50.321Z,100294.54
2018-04-22T23:04:16.305Z,100294.04
2018-04-22T23:06:42.101Z,100288.77
2018-04-22T23:09:07.931Z,100288.58
2018-04-22T23:11:33.710Z,100287.93
2018-04-22T23:13:59.501Z,100280.52
2018-04-22T23:16:25.308Z,100278.47
2018-04-22T23:18:51.118Z,100278.52
2018-04-22T23:21:16.917Z,100276.82
2018-04-22T23:23:42.733Z,100267.51
2018-04-22T23:26:08.669Z,100261.66
2018-04-22T23:28:34.437Z,100263.16
2018-04-22T23:31:00.245Z,100255.39
2018-04-22T23:33:26.038Z,100256.16
2018-04-22T23:35:51.814Z,100246.36
2018-04-22T23:38:17.632Z,100242.36
2018-04-22T23:40:43.425Z,100241.77
2018-04-22T23:43:09.231Z,100242.45
2018-04-22T23:45:35.028Z,100243.95
2018-04-22T23:48:00.816Z,100243.48
2018-04-22T23:50:26.620Z,100241.66
2018-04-22T23:52:52.402Z,100238.06
2018-04-22T23:55:18.337Z,100239.47
2018-04-22T23:57:44.150Z,100240.19
